sensor_id;sensor_type;location;lat;lon;timestamp;P1;durP1;ratioP1;P2;durP2;ratioP2
61487;SDS011;47351;53.326;-6.298;2022-08-23T00:02:09;3.60;;;1.40;;
61487;SDS011;47351;53.326;-6.298;2022-08-23T00:04:53;4.10;;;1.70;;
61487;SDS011;47351;53.326;-6.298;2022-08-23T00:07:43;3.00;;;1.40;;
61487;SDS011;47351;53.326;-6.298;2022-08-23T00:10:44;4.20;;;1.70;;
61487;SDS011;47351;53.326;-6.298;2022-08-23T00:16:20;2.90;;;1.40;;
61487;SDS011;47351;53.326;-6.298;2022-08-23T00:19:05;3.40;;;1.80;;
61487;SDS011;47351;53.326;-6.298;2022-08-23T00:22:05;4.80;;;1.60;;
61487;SDS011;47351;53.326;-6.298;2022-08-23T00:24:35;5.50;;;1.90;;
61487;SDS011;47351;53.326;-6.298;2022-08-23T00:27:27;3.30;;;1.80;;
61487;SDS011;47351;53.326;-6.298;2022-08-23T00:30:03;4.60;;;1.60;;
61487;SDS011;47351;53.326;-6.298;2022-08-23T00:32:37;3.80;;;1.90;;
61487;SDS011;47351;53.326;-6.298;2022-08-23T00:35:13;4.90;;;1.80;;
61487;SDS011;47351;53.326;-6.298;2022-08-23T00:38:01;5.20;;;2.20;;
61487;SDS011;47351;53.326;-6.298;2022-08-23T00:41:02;3.80;;;1.90;;
61487;SDS011;47351;53.326;-6.298;2022-08-23T00:43:33;5.40;;;2.00;;
61487;SDS011;47351;53.326;-6.298;2022-08-23T00:46:53;3.50;;;1.90;;
61487;SDS011;47351;53.326;-6.298;2022-08-23T00:49:49;5.70;;;2.20;;
61487;SDS011;47351;53.326;-6.298;2022-08-23T00:52:44;5.50;;;2.00;;
61487;SDS011;47351;53.326;-6.298;2022-08-23T00:55:18;7.30;;;2.10;;
61487;SDS011;47351;53.326;-6.298;2022-08-23T00:58:11;5.60;;;2.00;;
61487;SDS011;47351;53.326;-6.298;2022-08-23T01:00:54;6.00;;;2.20;;
61487;SDS011;47351;53.326;-6.298;2022-08-23T01:03:32;5.40;;;2.40;;
61487;SDS011;47351;53.326;-6.298;2022-08-23T01:06:12;6.10;;;2.10;;
61487;SDS011;47351;53.326;-6.298;2022-08-23T01:09:10;8.30;;;2.40;;
61487;SDS011;47351;53.326;-6.298;2022-08-23T01:11:41;6.90;;;2.40;;
61487;SDS011;47351;53.326;-6.298;2022-08-23T01:14:26;4.60;;;2.10;;
61487;SDS011;47351;53.326;-6.298;2022-08-23T01:17:11;5.20;;;2.20;;
61487;SDS011;47351;53.326;-6.298;2022-08-23T01:20:09;6.40;;;2.00;;
61487;SDS011;47351;53.326;-6.298;2022-08-23T01:22:47;5.80;;;2.50;;
61487;SDS011;47351;53.326;-6.298;2022-08-23T01:25:26;7.10;;;2.30;;
61487;SDS011;47351;53.326;-6.298;2022-08-23T01:27:58;6.20;;;2.30;;
61487;SDS011;47351;53.326;-6.298;2022-08-23T01:30:35;6.60;;;2.10;;
61487;SDS011;47351;53.326;-6.298;2022-08-23T01:33:10;5.70;;;2.20;;
61487;SDS011;47351;53.326;-6.298;2022-08-23T01:38:51;9.00;;;2.50;;
61487;SDS011;47351;53.326;-6.298;2022-08-23T01:45:33;5.00;;;2.50;;
61487;SDS011;47351;53.326;-6.298;2022-08-23T01:52:58;5.40;;;2.30;;
61487;SDS011;47351;53.326;-6.298;2022-08-23T01:55:50;6.80;;;2.40;;
61487;SDS011;47351;53.326;-6.298;2022-08-23T01:59:10;7.50;;;2.50;;
61487;SDS011;47351;53.326;-6.298;2022-08-23T02:02:02;6.00;;;2.80;;
61487;SDS011;47351;53.326;-6.298;2022-08-23T02:05:10;5.20;;;2.40;;
61487;SDS011;47351;53.326;-6.298;2022-08-23T02:08:02;6.00;;;2.80;;
61487;SDS011;47351;53.326;-6.298;2022-08-23T02:10:48;6.90;;;2.50;;
61487;SDS011;47351;53.326;-6.298;2022-08-23T02:13:37;8.10;;;3.00;;
61487;SDS011;47351;53.326;-6.298;2022-08-23T02:16:29;6.40;;;2.70;;
61487;SDS011;47351;53.326;-6.298;2022-08-23T02:19:14;8.80;;;2.80;;
61487;SDS011;47351;53.326;-6.298;2022-08-23T02:22:07;7.80;;;3.20;;
61487;SDS011;47351;53.326;-6.298;2022-08-23T02:25:10;7.90;;;3.20;;
61487;SDS011;47351;53.326;-6.298;2022-08-23T02:27:59;6.90;;;3.40;;
61487;SDS011;47351;53.326;-6.298;2022-08-23T02:30:50;7.50;;;3.50;;
61487;SDS011;47351;53.326;-6.298;2022-08-23T02:33:41;8.60;;;3.60;;
61487;SDS011;47351;53.326;-6.298;2022-08-23T02:36:27;10.60;;;3.60;;
61487;SDS011;47351;53.326;-6.298;2022-08-23T02:43:24;10.30;;;3.90;;
61487;SDS011;47351;53.326;-6.298;2022-08-23T02:46:22;7.70;;;3.60;;
61487;SDS011;47351;53.326;-6.298;2022-08-23T02:49:40;6.70;;;3.70;;
61487;SDS011;47351;53.326;-6.298;2022-08-23T02:52:38;9.00;;;4.10;;
61487;SDS011;47351;53.326;-6.298;2022-08-23T02:55:40;9.40;;;3.60;;
61487;SDS011;47351;53.326;-6.298;2022-08-23T02:58:43;10.00;;;3.80;;
61487;SDS011;47351;53.326;-6.298;2022-08-23T03:01:33;8.80;;;3.70;;
61487;SDS011;47351;53.326;-6.298;2022-08-23T03:04:30;9.20;;;3.90;;
61487;SDS011;47351;53.326;-6.298;2022-08-23T03:07:39;8.50;;;3.60;;
61487;SDS011;47351;53.326;-6.298;2022-08-23T03:10:25;9.00;;;4.00;;
61487;SDS011;47351;53.326;-6.298;2022-08-23T03:16:53;8.30;;;3.60;;
61487;SDS011;47351;53.326;-6.298;2022-08-23T03:19:46;11.20;;;4.00;;
61487;SDS011;47351;53.326;-6.298;2022-08-23T03:27:18;11.10;;;4.00;;
61487;SDS011;47351;53.326;-6.298;2022-08-23T03:30:21;8.40;;;3.70;;
61487;SDS011;47351;53.326;-6.298;2022-08-23T03:37:10;9.60;;;3.70;;
61487;SDS011;47351;53.326;-6.298;2022-08-23T03:39:43;8.40;;;4.10;;
61487;SDS011;47351;53.326;-6.298;2022-08-23T03:47:12;9.90;;;4.40;;
61487;SDS011;47351;53.326;-6.298;2022-08-23T03:50:05;9.20;;;4.00;;
61487;SDS011;47351;53.326;-6.298;2022-08-23T03:57:36;9.50;;;4.10;;
61487;SDS011;47351;53.326;-6.298;2022-08-23T04:00:41;7.90;;;3.80;;
61487;SDS011;47351;53.326;-6.298;2022-08-23T04:12:00;10.00;;;4.10;;
61487;SDS011;47351;53.326;-6.298;2022-08-23T04:14:45;11.90;;;3.90;;
61487;SDS011;47351;53.326;-6.298;2022-08-23T04:25:47;9.70;;;4.10;;
61487;SDS011;47351;53.326;-6.298;2022-08-23T04:28:58;11.00;;;3.80;;
61487;SDS011;47351;53.326;-6.298;2022-08-23T04:31:41;13.00;;;4.20;;
61487;SDS011;47351;53.326;-6.298;2022-08-23T04:34:35;8.50;;;3.70;;
61487;SDS011;47351;53.326;-6.298;2022-08-23T04:37:26;9.50;;;3.90;;
61487;SDS011;47351;53.326;-6.298;2022-08-23T04:40:15;8.40;;;3.70;;
61487;SDS011;47351;53.326;-6.298;2022-08-23T04:43:44;9.80;;;3.30;;
61487;SDS011;47351;53.326;-6.298;2022-08-23T04:46:53;7.70;;;3.40;;
61487;SDS011;47351;53.326;-6.298;2022-08-23T04:49:44;8.30;;;3.20;;
61487;SDS011;47351;53.326;-6.298;2022-08-23T04:52:34;6.40;;;3.00;;
61487;SDS011;47351;53.326;-6.298;2022-08-23T04:55:27;6.50;;;2.90;;
61487;SDS011;47351;53.326;-6.298;2022-08-23T04:58:19;7.50;;;2.80;;
61487;SDS011;47351;53.326;-6.298;2022-08-23T05:03:34;6.50;;;2.90;;
61487;SDS011;47351;53.326;-6.298;2022-08-23T05:06:23;5.10;;;2.70;;
61487;SDS011;47351;53.326;-6.298;2022-08-23T05:17:22;4.90;;;2.70;;
61487;SDS011;47351;53.326;-6.298;2022-08-23T05:20:13;6.50;;;2.50;;
61487;SDS011;47351;53.326;-6.298;2022-08-23T05:23:24;5.80;;;2.80;;
61487;SDS011;47351;53.326;-6.298;2022-08-23T05:26:21;6.40;;;2.50;;
61487;SDS011;47351;53.326;-6.298;2022-08-23T05:33:31;5.80;;;2.60;;
61487;SDS011;47351;53.326;-6.298;2022-08-23T05:41:14;4.10;;;2.20;;
61487;SDS011;47351;53.326;-6.298;2022-08-23T05:44:17;6.10;;;2.30;;
61487;SDS011;47351;53.326;-6.298;2022-08-23T05:47:11;5.00;;;2.40;;
61487;SDS011;47351;53.326;-6.298;2022-08-23T05:50:14;4.10;;;2.10;;
61487;SDS011;47351;53.326;-6.298;2022-08-23T05:53:22;7.20;;;2.40;;
61487;SDS011;47351;53.326;-6.298;2022-08-23T05:56:15;5.20;;;2.30;;
61487;SDS011;47351;53.326;-6.298;2022-08-23T05:59:04;4.70;;;2.20;;
61487;SDS011;47351;53.326;-6.298;2022-08-23T06:01:42;5.00;;;2.10;;
61487;SDS011;47351;53.326;-6.298;2022-08-23T06:04:15;5.60;;;2.20;;
61487;SDS011;47351;53.326;-6.298;2022-08-23T06:06:45;4.60;;;2.00;;
61487;SDS011;47351;53.326;-6.298;2022-08-23T06:09:47;3.50;;;2.00;;
61487;SDS011;47351;53.326;-6.298;2022-08-23T06:12:40;5.80;;;2.00;;
61487;SDS011;47351;53.326;-6.298;2022-08-23T06:15:29;5.40;;;2.20;;
61487;SDS011;47351;53.326;-6.298;2022-08-23T06:18:04;4.00;;;2.20;;
61487;SDS011;47351;53.326;-6.298;2022-08-23T06:21:00;6.20;;;2.70;;
61487;SDS011;47351;53.326;-6.298;2022-08-23T06:24:02;4.30;;;1.90;;
61487;SDS011;47351;53.326;-6.298;2022-08-23T06:26:42;4.40;;;2.10;;
61487;SDS011;47351;53.326;-6.298;2022-08-23T06:29:32;6.70;;;2.10;;
61487;SDS011;47351;53.326;-6.298;2022-08-23T06:32:37;6.10;;;2.30;;
61487;SDS011;47351;53.326;-6.298;2022-08-23T06:40:50;5.40;;;2.00;;
61487;SDS011;47351;53.326;-6.298;2022-08-23T06:43:40;5.60;;;2.00;;
61487;SDS011;47351;53.326;-6.298;2022-08-23T06:46:28;5.30;;;2.50;;
61487;SDS011;47351;53.326;-6.298;2022-08-23T06:49:13;6.00;;;2.00;;
61487;SDS011;47351;53.326;-6.298;2022-08-23T06:51:52;6.90;;;1.70;;
61487;SDS011;47351;53.326;-6.298;2022-08-23T06:54:52;4.70;;;1.70;;
61487;SDS011;47351;53.326;-6.298;2022-08-23T06:58:16;4.80;;;2.00;;
61487;SDS011;47351;53.326;-6.298;2022-08-23T07:01:10;4.60;;;1.80;;
61487;SDS011;47351;53.326;-6.298;2022-08-23T07:04:17;3.20;;;1.50;;
61487;SDS011;47351;53.326;-6.298;2022-08-23T07:07:15;4.10;;;1.70;;
61487;SDS011;47351;53.326;-6.298;2022-08-23T07:09:49;6.00;;;1.70;;
61487;SDS011;47351;53.326;-6.298;2022-08-23T07:12:25;5.60;;;1.50;;
61487;SDS011;47351;53.326;-6.298;2022-08-23T07:15:05;6.20;;;1.60;;
61487;SDS011;47351;53.326;-6.298;2022-08-23T07:17:38;2.90;;;1.50;;
61487;SDS011;47351;53.326;-6.298;2022-08-23T07:20:30;3.10;;;1.40;;
61487;SDS011;47351;53.326;-6.298;2022-08-23T07:23:25;3.90;;;1.30;;
61487;SDS011;47351;53.326;-6.298;2022-08-23T07:26:17;2.30;;;1.20;;
61487;SDS011;47351;53.326;-6.298;2022-08-23T07:28:53;3.40;;;1.20;;
61487;SDS011;47351;53.326;-6.298;2022-08-23T07:31:26;2.50;;;1.10;;
61487;SDS011;47351;53.326;-6.298;2022-08-23T07:34:03;2.80;;;1.10;;
61487;SDS011;47351;53.326;-6.298;2022-08-23T07:36:40;2.30;;;1.10;;
61487;SDS011;47351;53.326;-6.298;2022-08-23T07:39:50;4.80;;;1.30;;
61487;SDS011;47351;53.326;-6.298;2022-08-23T07:42:42;2.00;;;1.00;;
61487;SDS011;47351;53.326;-6.298;2022-08-23T07:54:35;2.20;;;1.10;;
61487;SDS011;47351;53.326;-6.298;2022-08-23T07:57:45;2.60;;;1.10;;
61487;SDS011;47351;53.326;-6.298;2022-08-23T08:00:55;4.70;;;1.40;;
61487;SDS011;47351;53.326;-6.298;2022-08-23T08:03:41;7.20;;;1.30;;
61487;SDS011;47351;53.326;-6.298;2022-08-23T08:06:32;4.40;;;1.30;;
61487;SDS011;47351;53.326;-6.298;2022-08-23T08:09:09;3.50;;;1.40;;
61487;SDS011;47351;53.326;-6.298;2022-08-23T08:11:42;4.40;;;1.30;;
61487;SDS011;47351;53.326;-6.298;2022-08-23T08:14:17;4.60;;;1.30;;
61487;SDS011;47351;53.326;-6.298;2022-08-23T08:16:52;3.10;;;1.50;;
61487;SDS011;47351;53.326;-6.298;2022-08-23T08:19:51;4.80;;;2.30;;
61487;SDS011;47351;53.326;-6.298;2022-08-23T08:22:52;4.20;;;1.20;;
61487;SDS011;47351;53.326;-6.298;2022-08-23T08:25:48;4.30;;;1.20;;
61487;SDS011;47351;53.326;-6.298;2022-08-23T08:28:38;1.80;;;1.00;;
61487;SDS011;47351;53.326;-6.298;2022-08-23T08:31:20;2.10;;;1.10;;
61487;SDS011;47351;53.326;-6.298;2022-08-23T08:37:17;2.50;;;1.10;;
61487;SDS011;47351;53.326;-6.298;2022-08-23T08:39:55;2.50;;;0.90;;
61487;SDS011;47351;53.326;-6.298;2022-08-23T08:42:36;5.90;;;1.10;;
61487;SDS011;47351;53.326;-6.298;2022-08-23T08:45:20;6.00;;;1.40;;
61487;SDS011;47351;53.326;-6.298;2022-08-23T08:47:55;4.90;;;1.20;;
61487;SDS011;47351;53.326;-6.298;2022-08-23T08:50:37;5.60;;;1.30;;
61487;SDS011;47351;53.326;-6.298;2022-08-23T08:53:16;5.80;;;2.10;;
61487;SDS011;47351;53.326;-6.298;2022-08-23T08:56:18;3.90;;;1.10;;
61487;SDS011;47351;53.326;-6.298;2022-08-23T08:59:03;2.60;;;1.00;;
61487;SDS011;47351;53.326;-6.298;2022-08-23T09:01:35;3.20;;;1.10;;
61487;SDS011;47351;53.326;-6.298;2022-08-23T09:04:06;3.60;;;1.00;;
61487;SDS011;47351;53.326;-6.298;2022-08-23T09:06:42;2.90;;;1.60;;
61487;SDS011;47351;53.326;-6.298;2022-08-23T09:09:26;2.70;;;1.10;;
61487;SDS011;47351;53.326;-6.298;2022-08-23T09:12:15;2.70;;;0.80;;
61487;SDS011;47351;53.326;-6.298;2022-08-23T09:14:59;2.30;;;1.00;;
61487;SDS011;47351;53.326;-6.298;2022-08-23T09:17:41;4.70;;;0.90;;
61487;SDS011;47351;53.326;-6.298;2022-08-23T09:20:11;3.30;;;0.90;;
61487;SDS011;47351;53.326;-6.298;2022-08-23T09:22:45;3.10;;;0.70;;
61487;SDS011;47351;53.326;-6.298;2022-08-23T09:27:58;4.50;;;0.80;;
61487;SDS011;47351;53.326;-6.298;2022-08-23T09:33:21;3.90;;;0.60;;
61487;SDS011;47351;53.326;-6.298;2022-08-23T09:36:05;2.80;;;0.80;;
61487;SDS011;47351;53.326;-6.298;2022-08-23T09:38:50;3.70;;;0.90;;
61487;SDS011;47351;53.326;-6.298;2022-08-23T09:41:23;3.70;;;0.90;;
61487;SDS011;47351;53.326;-6.298;2022-08-23T09:43:55;7.90;;;0.80;;
61487;SDS011;47351;53.326;-6.298;2022-08-23T09:46:29;3.00;;;0.80;;
61487;SDS011;47351;53.326;-6.298;2022-08-23T09:49:06;3.30;;;0.60;;
61487;SDS011;47351;53.326;-6.298;2022-08-23T09:51:51;2.00;;;0.60;;
61487;SDS011;47351;53.326;-6.298;2022-08-23T09:54:25;2.10;;;0.60;;
61487;SDS011;47351;53.326;-6.298;2022-08-23T09:57:05;4.80;;;0.70;;
61487;SDS011;47351;53.326;-6.298;2022-08-23T09:59:39;3.60;;;0.80;;
61487;SDS011;47351;53.326;-6.298;2022-08-23T10:02:25;3.90;;;0.60;;
61487;SDS011;47351;53.326;-6.298;2022-08-23T10:04:58;4.70;;;0.80;;
61487;SDS011;47351;53.326;-6.298;2022-08-23T10:07:34;4.90;;;0.70;;
61487;SDS011;47351;53.326;-6.298;2022-08-23T10:10:17;5.30;;;0.60;;
61487;SDS011;47351;53.326;-6.298;2022-08-23T10:12:52;1.40;;;0.50;;
61487;SDS011;47351;53.326;-6.298;2022-08-23T10:15:28;1.30;;;0.50;;
61487;SDS011;47351;53.326;-6.298;2022-08-23T10:18:09;3.70;;;0.40;;
61487;SDS011;47351;53.326;-6.298;2022-08-23T10:20:46;1.50;;;0.40;;
61487;SDS011;47351;53.326;-6.298;2022-08-23T10:23:26;0.60;;;0.20;;
61487;SDS011;47351;53.326;-6.298;2022-08-23T10:26:06;0.60;;;0.30;;
61487;SDS011;47351;53.326;-6.298;2022-08-23T10:28:43;1.50;;;0.50;;
61487;SDS011;47351;53.326;-6.298;2022-08-23T10:31:38;1.20;;;0.30;;
61487;SDS011;47351;53.326;-6.298;2022-08-23T10:34:21;1.20;;;0.50;;
61487;SDS011;47351;53.326;-6.298;2022-08-23T10:37:06;0.50;;;0.30;;
61487;SDS011;47351;53.326;-6.298;2022-08-23T10:39:49;3.90;;;0.40;;
61487;SDS011;47351;53.326;-6.298;2022-08-23T10:42:34;1.00;;;0.40;;
61487;SDS011;47351;53.326;-6.298;2022-08-23T10:45:24;1.40;;;0.30;;
61487;SDS011;47351;53.326;-6.298;2022-08-23T10:47:59;2.60;;;0.40;;
61487;SDS011;47351;53.326;-6.298;2022-08-23T10:50:41;2.70;;;0.30;;
61487;SDS011;47351;53.326;-6.298;2022-08-23T10:53:23;1.00;;;0.40;;
61487;SDS011;47351;53.326;-6.298;2022-08-23T10:56:00;3.60;;;0.60;;
61487;SDS011;47351;53.326;-6.298;2022-08-23T10:58:34;1.30;;;0.40;;
61487;SDS011;47351;53.326;-6.298;2022-08-23T11:01:16;3.50;;;0.50;;
61487;SDS011;47351;53.326;-6.298;2022-08-23T11:03:59;1.50;;;0.60;;
61487;SDS011;47351;53.326;-6.298;2022-08-23T11:06:45;1.30;;;0.50;;
61487;SDS011;47351;53.326;-6.298;2022-08-23T11:09:47;1.90;;;0.60;;
61487;SDS011;47351;53.326;-6.298;2022-08-23T11:12:25;1.50;;;0.50;;
61487;SDS011;47351;53.326;-6.298;2022-08-23T11:21:05;2.20;;;0.50;;
61487;SDS011;47351;53.326;-6.298;2022-08-23T11:23:51;2.60;;;0.50;;
61487;SDS011;47351;53.326;-6.298;2022-08-23T11:33:21;2.90;;;0.40;;
61487;SDS011;47351;53.326;-6.298;2022-08-23T11:35:54;1.60;;;0.40;;
61487;SDS011;47351;53.326;-6.298;2022-08-23T11:39:00;0.80;;;0.40;;
61487;SDS011;47351;53.326;-6.298;2022-08-23T11:41:57;3.30;;;0.70;;
61487;SDS011;47351;53.326;-6.298;2022-08-23T11:44:38;4.90;;;0.50;;
61487;SDS011;47351;53.326;-6.298;2022-08-23T11:47:13;1.60;;;0.30;;
61487;SDS011;47351;53.326;-6.298;2022-08-23T11:50:01;3.30;;;0.60;;
61487;SDS011;47351;53.326;-6.298;2022-08-23T11:52:51;1.80;;;0.30;;
61487;SDS011;47351;53.326;-6.298;2022-08-23T11:55:48;2.70;;;0.50;;
61487;SDS011;47351;53.326;-6.298;2022-08-23T11:58:29;2.40;;;0.50;;
61487;SDS011;47351;53.326;-6.298;2022-08-23T12:01:15;2.90;;;0.50;;
61487;SDS011;47351;53.326;-6.298;2022-08-23T12:04:04;3.90;;;0.40;;
61487;SDS011;47351;53.326;-6.298;2022-08-23T12:06:39;2.60;;;0.40;;
61487;SDS011;47351;53.326;-6.298;2022-08-23T12:09:51;3.20;;;0.50;;
61487;SDS011;47351;53.326;-6.298;2022-08-23T12:12:26;3.90;;;0.50;;
61487;SDS011;47351;53.326;-6.298;2022-08-23T12:15:15;3.80;;;0.50;;
61487;SDS011;47351;53.326;-6.298;2022-08-23T12:17:54;4.30;;;0.50;;
61487;SDS011;47351;53.326;-6.298;2022-08-23T12:20:37;2.00;;;0.50;;
61487;SDS011;47351;53.326;-6.298;2022-08-23T12:23:13;1.50;;;0.40;;
61487;SDS011;47351;53.326;-6.298;2022-08-23T12:26:24;4.40;;;0.40;;
61487;SDS011;47351;53.326;-6.298;2022-08-23T12:29:17;4.00;;;0.40;;
61487;SDS011;47351;53.326;-6.298;2022-08-23T12:31:56;1.20;;;0.40;;
61487;SDS011;47351;53.326;-6.298;2022-08-23T12:34:36;9.50;;;1.10;;
61487;SDS011;47351;53.326;-6.298;2022-08-23T12:37:15;2.80;;;0.60;;
61487;SDS011;47351;53.326;-6.298;2022-08-23T12:39:57;1.70;;;0.30;;
61487;SDS011;47351;53.326;-6.298;2022-08-23T12:42:32;22.80;;;2.60;;
61487;SDS011;47351;53.326;-6.298;2022-08-23T12:45:07;47.90;;;6.80;;
61487;SDS011;47351;53.326;-6.298;2022-08-23T12:47:42;2.30;;;0.50;;
61487;SDS011;47351;53.326;-6.298;2022-08-23T12:50:25;4.10;;;0.30;;
61487;SDS011;47351;53.326;-6.298;2022-08-23T12:53:02;5.50;;;0.40;;
61487;SDS011;47351;53.326;-6.298;2022-08-23T12:55:33;2.40;;;0.30;;
61487;SDS011;47351;53.326;-6.298;2022-08-23T12:58:05;3.10;;;0.40;;
61487;SDS011;47351;53.326;-6.298;2022-08-23T13:00:36;2.20;;;0.50;;
61487;SDS011;47351;53.326;-6.298;2022-08-23T13:03:12;4.00;;;0.60;;
61487;SDS011;47351;53.326;-6.298;2022-08-23T13:05:45;5.50;;;0.50;;
61487;SDS011;47351;53.326;-6.298;2022-08-23T13:08:20;2.90;;;0.40;;
61487;SDS011;47351;53.326;-6.298;2022-08-23T13:11:01;3.00;;;0.60;;
61487;SDS011;47351;53.326;-6.298;2022-08-23T13:13:36;2.10;;;0.40;;
61487;SDS011;47351;53.326;-6.298;2022-08-23T13:18:54;2.60;;;0.40;;
61487;SDS011;47351;53.326;-6.298;2022-08-23T13:21:38;1.80;;;0.90;;
61487;SDS011;47351;53.326;-6.298;2022-08-23T13:27:12;12.10;;;1.20;;
61487;SDS011;47351;53.326;-6.298;2022-08-23T13:29:53;2.40;;;0.70;;
61487;SDS011;47351;53.326;-6.298;2022-08-23T13:32:25;3.20;;;1.30;;
61487;SDS011;47351;53.326;-6.298;2022-08-23T13:37:57;2.00;;;1.10;;
61487;SDS011;47351;53.326;-6.298;2022-08-23T13:40:29;3.80;;;1.20;;
61487;SDS011;47351;53.326;-6.298;2022-08-23T13:43:06;3.00;;;1.30;;
61487;SDS011;47351;53.326;-6.298;2022-08-23T13:45:44;4.80;;;1.20;;
61487;SDS011;47351;53.326;-6.298;2022-08-23T13:48:15;5.50;;;0.90;;
61487;SDS011;47351;53.326;-6.298;2022-08-23T13:50:47;6.60;;;1.10;;
61487;SDS011;47351;53.326;-6.298;2022-08-23T13:53:22;3.50;;;1.20;;
61487;SDS011;47351;53.326;-6.298;2022-08-23T13:55:52;5.10;;;1.00;;
61487;SDS011;47351;53.326;-6.298;2022-08-23T13:58:26;3.20;;;1.00;;
61487;SDS011;47351;53.326;-6.298;2022-08-23T14:00:58;3.80;;;1.60;;
61487;SDS011;47351;53.326;-6.298;2022-08-23T14:03:29;2.90;;;1.40;;
61487;SDS011;47351;53.326;-6.298;2022-08-23T14:05:58;3.30;;;1.10;;
61487;SDS011;47351;53.326;-6.298;2022-08-23T14:08:27;1.60;;;1.20;;
61487;SDS011;47351;53.326;-6.298;2022-08-23T14:10:59;3.30;;;1.10;;
61487;SDS011;47351;53.326;-6.298;2022-08-23T14:13:29;2.50;;;1.10;;
61487;SDS011;47351;53.326;-6.298;2022-08-23T14:16:00;1.90;;;0.90;;
61487;SDS011;47351;53.326;-6.298;2022-08-23T14:18:51;3.10;;;0.90;;
61487;SDS011;47351;53.326;-6.298;2022-08-23T14:21:40;2.30;;;1.00;;
61487;SDS011;47351;53.326;-6.298;2022-08-23T14:24:09;1.90;;;0.80;;
61487;SDS011;47351;53.326;-6.298;2022-08-23T14:26:41;4.90;;;2.60;;
61487;SDS011;47351;53.326;-6.298;2022-08-23T14:29:18;2.50;;;0.90;;
61487;SDS011;47351;53.326;-6.298;2022-08-23T14:31:52;2.90;;;0.90;;
61487;SDS011;47351;53.326;-6.298;2022-08-23T14:34:21;2.60;;;0.80;;
61487;SDS011;47351;53.326;-6.298;2022-08-23T14:39:39;3.80;;;1.50;;
61487;SDS011;47351;53.326;-6.298;2022-08-23T14:42:08;2.60;;;0.80;;
61487;SDS011;47351;53.326;-6.298;2022-08-23T14:44:39;4.00;;;0.80;;
61487;SDS011;47351;53.326;-6.298;2022-08-23T14:47:08;3.30;;;0.90;;
61487;SDS011;47351;53.326;-6.298;2022-08-23T14:49:37;3.30;;;1.10;;
61487;SDS011;47351;53.326;-6.298;2022-08-23T14:52:05;2.50;;;0.80;;
61487;SDS011;47351;53.326;-6.298;2022-08-23T14:54:42;1.70;;;0.80;;
61487;SDS011;47351;53.326;-6.298;2022-08-23T14:57:16;1.90;;;0.90;;
61487;SDS011;47351;53.326;-6.298;2022-08-23T14:59:48;2.50;;;0.80;;
61487;SDS011;47351;53.326;-6.298;2022-08-23T15:02:21;2.60;;;1.10;;
61487;SDS011;47351;53.326;-6.298;2022-08-23T15:04:51;3.60;;;0.80;;
61487;SDS011;47351;53.326;-6.298;2022-08-23T15:07:29;3.50;;;0.90;;
61487;SDS011;47351;53.326;-6.298;2022-08-23T15:10:06;4.90;;;0.80;;
61487;SDS011;47351;53.326;-6.298;2022-08-23T15:12:59;2.00;;;0.90;;
61487;SDS011;47351;53.326;-6.298;2022-08-23T15:15:48;2.70;;;1.00;;
61487;SDS011;47351;53.326;-6.298;2022-08-23T15:18:18;2.00;;;0.80;;
61487;SDS011;47351;53.326;-6.298;2022-08-23T15:20:47;23.90;;;2.30;;
61487;SDS011;47351;53.326;-6.298;2022-08-23T15:23:19;4.20;;;1.00;;
61487;SDS011;47351;53.326;-6.298;2022-08-23T15:25:48;2.70;;;0.80;;
61487;SDS011;47351;53.326;-6.298;2022-08-23T15:28:18;0.90;;;0.60;;
61487;SDS011;47351;53.326;-6.298;2022-08-23T15:30:49;1.40;;;0.60;;
61487;SDS011;47351;53.326;-6.298;2022-08-23T15:35:53;2.80;;;0.70;;
61487;SDS011;47351;53.326;-6.298;2022-08-23T15:38:25;4.50;;;0.80;;
61487;SDS011;47351;53.326;-6.298;2022-08-23T15:40:54;2.00;;;0.70;;
61487;SDS011;47351;53.326;-6.298;2022-08-23T15:43:24;3.00;;;0.70;;
61487;SDS011;47351;53.326;-6.298;2022-08-23T15:46:05;2.80;;;0.70;;
61487;SDS011;47351;53.326;-6.298;2022-08-23T15:48:37;0.60;;;0.50;;
61487;SDS011;47351;53.326;-6.298;2022-08-23T15:51:13;3.40;;;0.70;;
61487;SDS011;47351;53.326;-6.298;2022-08-23T15:53:46;1.40;;;0.60;;
61487;SDS011;47351;53.326;-6.298;2022-08-23T15:56:18;2.70;;;0.60;;
61487;SDS011;47351;53.326;-6.298;2022-08-23T15:58:49;2.60;;;0.60;;
61487;SDS011;47351;53.326;-6.298;2022-08-23T16:01:20;2.80;;;0.70;;
61487;SDS011;47351;53.326;-6.298;2022-08-23T16:03:51;2.80;;;0.60;;
61487;SDS011;47351;53.326;-6.298;2022-08-23T16:06:20;2.20;;;0.60;;
61487;SDS011;47351;53.326;-6.298;2022-08-23T16:08:50;5.50;;;0.90;;
61487;SDS011;47351;53.326;-6.298;2022-08-23T16:11:20;2.10;;;0.60;;
61487;SDS011;47351;53.326;-6.298;2022-08-23T16:13:50;3.60;;;0.70;;
61487;SDS011;47351;53.326;-6.298;2022-08-23T16:16:25;1.50;;;0.70;;
61487;SDS011;47351;53.326;-6.298;2022-08-23T16:18:57;2.00;;;0.70;;
61487;SDS011;47351;53.326;-6.298;2022-08-23T16:24:01;2.00;;;0.60;;
61487;SDS011;47351;53.326;-6.298;2022-08-23T16:29:03;2.60;;;1.10;;
61487;SDS011;47351;53.326;-6.298;2022-08-23T16:31:35;2.70;;;0.70;;
61487;SDS011;47351;53.326;-6.298;2022-08-23T16:34:08;2.90;;;0.70;;
61487;SDS011;47351;53.326;-6.298;2022-08-23T16:36:39;2.30;;;0.60;;
61487;SDS011;47351;53.326;-6.298;2022-08-23T16:39:13;4.20;;;1.00;;
61487;SDS011;47351;53.326;-6.298;2022-08-23T16:41:43;2.60;;;0.80;;
61487;SDS011;47351;53.326;-6.298;2022-08-23T16:44:12;7.20;;;0.60;;
61487;SDS011;47351;53.326;-6.298;2022-08-23T16:46:41;5.50;;;0.90;;
61487;SDS011;47351;53.326;-6.298;2022-08-23T16:49:14;5.60;;;0.90;;
61487;SDS011;47351;53.326;-6.298;2022-08-23T16:51:47;5.90;;;0.90;;
61487;SDS011;47351;53.326;-6.298;2022-08-23T16:54:16;8.80;;;0.90;;
61487;SDS011;47351;53.326;-6.298;2022-08-23T16:56:46;2.70;;;1.00;;
61487;SDS011;47351;53.326;-6.298;2022-08-23T16:59:15;4.40;;;0.70;;
61487;SDS011;47351;53.326;-6.298;2022-08-23T17:01:46;2.40;;;0.90;;
61487;SDS011;47351;53.326;-6.298;2022-08-23T17:04:18;1.50;;;0.60;;
61487;SDS011;47351;53.326;-6.298;2022-08-23T17:06:50;2.40;;;0.70;;
61487;SDS011;47351;53.326;-6.298;2022-08-23T17:09:20;2.30;;;0.60;;
61487;SDS011;47351;53.326;-6.298;2022-08-23T17:11:50;2.50;;;0.70;;
61487;SDS011;47351;53.326;-6.298;2022-08-23T17:14:21;1.70;;;0.70;;
61487;SDS011;47351;53.326;-6.298;2022-08-23T17:16:50;2.90;;;0.70;;
61487;SDS011;47351;53.326;-6.298;2022-08-23T17:19:19;5.60;;;0.80;;
61487;SDS011;47351;53.326;-6.298;2022-08-23T17:21:48;3.40;;;0.60;;
61487;SDS011;47351;53.326;-6.298;2022-08-23T17:24:17;1.60;;;0.70;;
61487;SDS011;47351;53.326;-6.298;2022-08-23T17:26:46;4.00;;;0.70;;
61487;SDS011;47351;53.326;-6.298;2022-08-23T17:29:15;1.10;;;0.60;;
61487;SDS011;47351;53.326;-6.298;2022-08-23T17:31:46;4.60;;;0.80;;
61487;SDS011;47351;53.326;-6.298;2022-08-23T17:34:17;1.40;;;0.70;;
61487;SDS011;47351;53.326;-6.298;2022-08-23T17:36:49;1.60;;;0.60;;
61487;SDS011;47351;53.326;-6.298;2022-08-23T17:39:25;2.70;;;0.70;;
61487;SDS011;47351;53.326;-6.298;2022-08-23T17:41:55;4.90;;;0.60;;
61487;SDS011;47351;53.326;-6.298;2022-08-23T17:44:28;1.80;;;0.50;;
61487;SDS011;47351;53.326;-6.298;2022-08-23T17:47:05;2.60;;;0.70;;
61487;SDS011;47351;53.326;-6.298;2022-08-23T17:49:38;1.40;;;0.60;;
61487;SDS011;47351;53.326;-6.298;2022-08-23T17:52:07;1.80;;;0.70;;
61487;SDS011;47351;53.326;-6.298;2022-08-23T17:54:46;1.70;;;0.80;;
61487;SDS011;47351;53.326;-6.298;2022-08-23T17:57:23;1.50;;;0.70;;
61487;SDS011;47351;53.326;-6.298;2022-08-23T17:59:52;1.90;;;0.90;;
61487;SDS011;47351;53.326;-6.298;2022-08-23T18:02:21;1.50;;;0.70;;
61487;SDS011;47351;53.326;-6.298;2022-08-23T18:04:50;1.90;;;0.70;;
61487;SDS011;47351;53.326;-6.298;2022-08-23T18:07:20;1.70;;;0.70;;
61487;SDS011;47351;53.326;-6.298;2022-08-23T18:09:49;1.00;;;0.70;;
61487;SDS011;47351;53.326;-6.298;2022-08-23T18:12:18;2.10;;;0.80;;
61487;SDS011;47351;53.326;-6.298;2022-08-23T18:14:48;2.40;;;0.90;;